createdAt,value
2023-03-29T00:01:35.825Z,3.00
2023-03-29T00:04:03.025Z,3.33
2023-03-29T00:06:29.524Z,2.75
2023-03-29T00:08:55.916Z,2.10
2023-03-29T00:11:22.370Z,2.72
2023-03-29T00:13:48.752Z,3.63
2023-03-29T00:16:15.158Z,3.08
2023-03-29T00:18:41.602Z,2.65
2023-03-29T00:21:07.990Z,2.60
2023-03-29T00:23:34.397Z,2.65
2023-03-29T00:26:00.846Z,3.05
2023-03-29T00:28:27.268Z,3.28
2023-03-29T00:30:53.968Z,3.05
2023-03-29T00:33:20.411Z,2.40
2023-03-29T00:35:46.852Z,3.58
2023-03-29T00:38:13.297Z,2.83
2023-03-29T00:40:39.714Z,3.95
2023-03-29T00:43:06.187Z,3.40
2023-03-29T00:45:32.634Z,3.63
2023-03-29T00:47:59.031Z,3.40
2023-03-29T00:50:25.466Z,4.18
2023-03-29T00:52:51.864Z,5.65
2023-03-29T00:55:18.282Z,3.35
2023-03-29T00:57:44.726Z,4.88
2023-03-29T01:00:11.315Z,3.50
2023-03-29T01:02:37.850Z,3.72
2023-03-29T01:05:04.421Z,4.10
2023-03-29T01:07:30.854Z,4.10
2023-03-29T01:09:57.233Z,5.22
2023-03-29T01:12:23.878Z,5.88
2023-03-29T01:14:50.296Z,5.13
2023-03-29T01:17:16.704Z,6.28
2023-03-29T01:19:43.175Z,5.07
2023-03-29T01:22:09.626Z,5.25
2023-03-29T01:24:36.014Z,5.20
2023-03-29T01:27:02.452Z,5.13
2023-03-29T01:29:29.010Z,7.70
2023-03-29T01:31:55.551Z,5.80
2023-03-29T01:34:22.010Z,6.03
2023-03-29T01:36:48.476Z,5.28
2023-03-29T01:39:14.895Z,5.03
2023-03-29T01:41:41.382Z,5.03
2023-03-29T01:44:07.777Z,6.05
2023-03-29T01:46:34.261Z,6.05
2023-03-29T01:49:00.734Z,6.53
2023-03-29T01:51:27.185Z,6.82
2023-03-29T01:53:53.685Z,6.00
2023-03-29T01:56:20.144Z,6.43
2023-03-29T01:58:46.529Z,7.03
2023-03-29T02:01:12.965Z,7.07
2023-03-29T02:03:39.391Z,5.88
2023-03-29T02:06:05.834Z,4.93
2023-03-29T02:08:32.430Z,6.00
2023-03-29T02:10:59.276Z,5.00
2023-03-29T02:13:25.760Z,7.57
2023-03-29T02:15:52.170Z,6.93
2023-03-29T02:18:18.653Z,6.80
2023-03-29T02:20:45.063Z,7.45
2023-03-29T02:23:11.532Z,6.97
2023-03-29T02:25:37.997Z,7.22
2023-03-29T02:28:04.483Z,6.22
2023-03-29T02:30:30.914Z,6.00
2023-03-29T02:32:57.520Z,4.85
2023-03-29T02:35:24.088Z,6.78
2023-03-29T02:37:50.483Z,7.38
2023-03-29T02:40:16.850Z,6.38
2023-03-29T02:42:43.221Z,7.43
2023-03-29T02:45:09.684Z,5.50
2023-03-29T02:47:36.105Z,6.68
2023-03-29T02:50:02.566Z,5.68
2023-03-29T02:52:29.058Z,5.82
2023-03-29T02:54:55.521Z,7.47
2023-03-29T02:57:22.029Z,7.97
2023-03-29T02:59:48.540Z,5.35
2023-03-29T03:02:15.087Z,5.22
2023-03-29T03:04:41.613Z,4.97
2023-03-29T03:07:08.005Z,5.07
2023-03-29T03:09:34.414Z,5.32
2023-03-29T03:12:00.794Z,6.28
2023-03-29T03:14:27.238Z,4.72
2023-03-29T03:16:53.994Z,6.88
2023-03-29T03:19:20.370Z,5.75
2023-03-29T03:21:46.764Z,4.60
2023-03-29T03:24:13.218Z,4.88
2023-03-29T03:26:39.673Z,3.47
2023-03-29T03:29:06.122Z,4.25
2023-03-29T03:31:33.686Z,4.00
2023-03-29T03:34:00.175Z,3.55
2023-03-29T03:36:26.620Z,3.72
2023-03-29T03:38:53.097Z,4.53
2023-03-29T03:41:19.475Z,4.43
2023-03-29T03:43:45.894Z,5.20
2023-03-29T03:46:12.415Z,3.40
2023-03-29T03:48:38.886Z,3.67
2023-03-29T03:51:05.506Z,3.42
2023-03-29T03:53:31.985Z,3.67
2023-03-29T03:55:58.558Z,3.95
2023-03-29T03:58:24.987Z,4.28
2023-03-29T04:00:51.440Z,4.30
2023-03-29T04:03:18.062Z,4.55
2023-03-29T04:05:44.629Z,2.60
2023-03-29T04:08:11.083Z,3.38
2023-03-29T04:10:37.533Z,3.28
2023-03-29T04:13:03.931Z,3.22
2023-03-29T04:15:30.399Z,3.67
2023-03-29T04:17:56.993Z,2.95
2023-03-29T04:20:23.470Z,4.18
2023-03-29T04:22:49.921Z,3.50
2023-03-29T04:25:16.369Z,3.08
2023-03-29T04:27:42.763Z,3.92
2023-03-29T04:30:09.211Z,4.53
2023-03-29T04:32:35.626Z,3.25
2023-03-29T04:35:02.081Z,3.30
2023-03-29T04:37:28.475Z,3.58
2023-03-29T04:39:55.111Z,3.88
2023-03-29T04:42:21.527Z,3.88
2023-03-29T04:44:48.015Z,4.53
2023-03-29T04:47:14.463Z,4.70
2023-03-29T04:49:40.932Z,5.03
2023-03-29T04:52:07.363Z,3.88
2023-03-29T04:54:33.786Z,4.38
2023-03-29T04:57:00.274Z,3.80
2023-03-29T04:59:26.777Z,4.13
2023-03-29T05:01:53.258Z,3.42
2023-03-29T05:04:19.726Z,4.60
2023-03-29T05:06:46.134Z,3.47
2023-03-29T05:09:12.557Z,3.92
2023-03-29T05:11:39.017Z,4.05
2023-03-29T05:14:05.442Z,3.70
2023-03-29T05:16:31.882Z,3.70
2023-03-29T05:18:58.296Z,4.25
2023-03-29T05:21:24.767Z,3.63
2023-03-29T05:23:51.230Z,3.45
2023-03-29T05:26:17.688Z,3.67
2023-03-29T05:28:44.095Z,3.88
2023-03-29T05:31:10.529Z,4.25
2023-03-29T05:33:36.977Z,3.90
2023-03-29T05:36:03.460Z,3.80
2023-03-29T05:38:30.004Z,4.90
2023-03-29T05:40:56.435Z,4.65
2023-03-29T05:43:22.829Z,4.72
2023-03-29T05:45:49.324Z,4.03
2023-03-29T05:48:15.754Z,4.22
2023-03-29T05:50:43.785Z,4.57
2023-03-29T05:53:11.466Z,3.47
2023-03-29T05:55:37.916Z,4.47
2023-03-29T05:58:04.358Z,3.72
2023-03-29T06:00:30.761Z,3.60
2023-03-29T06:03:03.772Z,4.07
2023-03-29T06:05:39.919Z,3.63
2023-03-29T06:08:06.325Z,5.43
2023-03-29T06:10:32.714Z,3.13
2023-03-29T06:12:59.118Z,4.47
2023-03-29T06:15:25.517Z,3.58
2023-03-29T06:17:52.002Z,4.95
2023-03-29T06:20:18.560Z,3.60
2023-03-29T06:22:45.091Z,3.15
2023-03-29T06:25:11.535Z,4.13
2023-03-29T06:27:37.981Z,4.18
2023-03-29T06:30:04.382Z,3.72
2023-03-29T06:32:30.863Z,3.95
2023-03-29T06:34:57.494Z,4.10
2023-03-29T06:37:24.138Z,3.15
2023-03-29T06:39:53.207Z,3.30
2023-03-29T06:42:21.528Z,3.72
2023-03-29T06:44:48.207Z,3.80
2023-03-29T06:47:14.613Z,4.28
2023-03-29T06:49:41.043Z,3.83
2023-03-29T06:52:07.512Z,3.55
2023-03-29T06:54:33.997Z,3.03
2023-03-29T06:57:00.398Z,3.15
2023-03-29T06:59:26.814Z,4.53
2023-03-29T07:01:53.509Z,4.93
2023-03-29T07:04:19.968Z,3.55
2023-03-29T07:06:46.435Z,3.38
2023-03-29T07:09:12.845Z,3.55
2023-03-29T07:11:39.561Z,3.88
2023-03-29T07:14:06.018Z,3.20
2023-03-29T07:16:32.698Z,4.43
2023-03-29T07:18:59.245Z,4.38
2023-03-29T07:21:25.698Z,4.18
2023-03-29T07:23:52.159Z,4.32
2023-03-29T07:26:28.760Z,3.35
2023-03-29T07:28:56.643Z,3.88
2023-03-29T07:31:23.252Z,4.55
2023-03-29T07:33:49.848Z,3.50
2023-03-29T07:36:16.349Z,3.08
2023-03-29T07:38:42.861Z,4.85
2023-03-29T07:41:09.300Z,3.42
2023-03-29T07:43:35.771Z,3.50
2023-03-29T07:46:02.258Z,4.25
2023-03-29T07:48:28.800Z,3.03
2023-03-29T07:50:55.184Z,3.47
2023-03-29T07:53:21.594Z,4.13
2023-03-29T07:55:47.996Z,3.65
2023-03-29T07:58:14.404Z,4.07
2023-03-29T08:00:40.891Z,2.97
2023-03-29T08:03:09.645Z,3.35
2023-03-29T08:05:41.447Z,3.13
2023-03-29T08:08:08.534Z,2.50
2023-03-29T08:10:34.948Z,3.25
2023-03-29T08:13:01.338Z,3.50
2023-03-29T08:15:27.746Z,4.63
2023-03-29T08:17:54.319Z,3.42
2023-03-29T08:20:20.770Z,3.30
2023-03-29T08:22:47.190Z,5.13
2023-03-29T08:25:13.664Z,3.25
2023-03-29T08:27:40.075Z,4.57
2023-03-29T08:30:06.511Z,3.15
2023-03-29T08:32:32.957Z,4.38
2023-03-29T08:34:59.407Z,4.25
2023-03-29T08:37:25.803Z,4.45
2023-03-29T08:39:52.227Z,4.43
2023-03-29T08:42:18.638Z,4.18
2023-03-29T08:44:45.079Z,6.30
2023-03-29T08:47:11.497Z,4.10
2023-03-29T08:49:37.897Z,3.85
2023-03-29T08:52:04.349Z,3.88
2023-03-29T08:54:30.774Z,4.75
2023-03-29T08:56:57.565Z,5.22
2023-03-29T08:59:24.317Z,6.68
2023-03-29T09:01:50.765Z,4.88
2023-03-29T09:04:17.221Z,4.25
2023-03-29T09:06:43.609Z,4.15
2023-03-29T09:09:10.050Z,3.78
2023-03-29T09:11:36.511Z,4.75
2023-03-29T09:14:02.924Z,4.07
2023-03-29T09:16:29.411Z,5.05
2023-03-29T09:18:55.867Z,4.45
2023-03-29T09:21:22.320Z,4.40
2023-03-29T09:23:48.768Z,4.68
2023-03-29T09:26:15.243Z,3.58
2023-03-29T09:28:41.669Z,5.30
2023-03-29T09:31:08.157Z,4.30
2023-03-29T09:33:34.601Z,5.05
2023-03-29T09:36:01.107Z,4.28
2023-03-29T09:38:27.731Z,4.38
2023-03-29T09:40:54.379Z,5.75
2023-03-29T09:43:20.851Z,6.32
2023-03-29T09:45:47.340Z,4.32
2023-03-29T09:48:13.856Z,4.32
2023-03-29T09:50:40.310Z,4.53
2023-03-29T09:53:06.758Z,4.63
2023-03-29T09:55:33.420Z,4.78
2023-03-29T09:58:00.114Z,4.53
2023-03-29T10:00:26.587Z,5.40
2023-03-29T10:02:53.381Z,6.72
2023-03-29T10:05:19.865Z,6.13
2023-03-29T10:07:46.324Z,4.82
2023-03-29T10:10:12.722Z,5.65
2023-03-29T10:12:39.182Z,5.05
2023-03-29T10:15:06.185Z,5.38
2023-03-29T10:17:32.996Z,5.43
2023-03-29T10:20:01.446Z,5.47
2023-03-29T10:22:29.498Z,6.55
2023-03-29T10:24:55.961Z,6.10
2023-03-29T10:27:22.390Z,3.67
2023-03-29T10:29:48.848Z,4.18
2023-03-29T10:32:15.294Z,5.53
2023-03-29T10:34:41.670Z,6.80
2023-03-29T10:37:08.068Z,7.45
2023-03-29T10:39:34.485Z,5.75
2023-03-29T10:42:00.868Z,5.55
2023-03-29T10:44:27.610Z,5.07
2023-03-29T10:46:54.336Z,4.53
2023-03-29T10:49:20.796Z,4.57
2023-03-29T10:51:47.254Z,5.70
2023-03-29T10:54:13.717Z,5.55
2023-03-29T10:56:40.392Z,5.90
2023-03-29T10:59:07.011Z,5.13
2023-03-29T11:01:33.496Z,5.50
2023-03-29T11:04:00.281Z,4.35
2023-03-29T11:06:26.875Z,5.05
2023-03-29T11:08:53.485Z,6.05
2023-03-29T11:11:19.963Z,5.53
2023-03-29T11:13:46.376Z,5.57
2023-03-29T11:16:12.853Z,5.40
2023-03-29T11:18:39.346Z,5.40
2023-03-29T11:21:10.328Z,4.93
2023-03-29T11:23:37.235Z,7.15
2023-03-29T11:26:03.636Z,5.05
2023-03-29T11:28:30.056Z,5.40
2023-03-29T11:30:56.490Z,5.88
2023-03-29T11:33:22.921Z,5.43
2023-03-29T11:35:49.575Z,7.97
2023-03-29T11:38:16.047Z,6.78
2023-03-29T11:40:42.477Z,7.47
2023-03-29T11:43:08.866Z,7.13
2023-03-29T11:45:35.256Z,8.23
2023-03-29T11:48:01.688Z,6.13
2023-03-29T11:50:28.209Z,6.70
2023-03-29T11:52:54.666Z,7.22
2023-03-29T11:55:21.090Z,6.75
2023-03-29T11:57:47.533Z,6.78
2023-03-29T12:00:13.911Z,5.85
2023-03-29T12:02:40.420Z,5.07
2023-03-29T12:05:06.922Z,6.78
2023-03-29T12:07:33.417Z,6.78
2023-03-29T12:09:59.870Z,7.00
2023-03-29T12:12:26.608Z,7.57
2023-03-29T12:14:53.383Z,6.75
2023-03-29T12:17:19.790Z,7.90
2023-03-29T12:19:46.155Z,4.55
2023-03-29T12:22:12.590Z,5.28
2023-03-29T12:24:38.997Z,8.75
2023-03-29T12:27:05.454Z,5.88
2023-03-29T12:29:31.842Z,5.28
2023-03-29T12:31:58.459Z,5.57
2023-03-29T12:34:24.960Z,5.28
2023-03-29T12:36:51.381Z,5.20
2023-03-29T12:39:17.799Z,5.75
2023-03-29T12:41:44.208Z,4.75
2023-03-29T12:44:10.826Z,6.40
2023-03-29T12:46:37.351Z,4.63
2023-03-29T12:49:03.855Z,5.45
2023-03-29T12:51:30.253Z,4.15
2023-03-29T12:53:56.631Z,4.20
2023-03-29T12:56:23.423Z,5.13
2023-03-29T12:58:49.864Z,4.45
2023-03-29T13:01:16.359Z,4.90
2023-03-29T13:03:42.814Z,5.03
2023-03-29T13:06:09.195Z,5.70
2023-03-29T13:08:35.710Z,4.68
2023-03-29T13:11:02.184Z,4.70
2023-03-29T13:13:28.803Z,4.72
2023-03-29T13:15:55.304Z,4.47
2023-03-29T13:18:21.718Z,5.00
2023-03-29T13:20:48.167Z,5.60
2023-03-29T13:23:16.249Z,5.28
2023-03-29T13:25:44.024Z,5.35
2023-03-29T13:28:10.470Z,5.82
2023-03-29T13:30:36.852Z,4.45
2023-03-29T13:33:03.287Z,4.60
2023-03-29T13:35:29.757Z,3.45
2023-03-29T13:37:56.149Z,3.83
2023-03-29T13:40:22.573Z,4.18
2023-03-29T13:42:49.030Z,4.10
2023-03-29T13:45:15.460Z,4.38
2023-03-29T13:47:44.744Z,5.00
2023-03-29T13:50:15.640Z,3.25
2023-03-29T13:52:42.063Z,3.53
2023-03-29T13:55:08.561Z,3.42
2023-03-29T13:57:35.030Z,3.83
2023-03-29T14:00:01.530Z,3.40
2023-03-29T14:02:28.134Z,3.05
2023-03-29T14:04:54.666Z,3.83
2023-03-29T14:07:21.090Z,3.17
2023-03-29T14:09:47.526Z,2.97
2023-03-29T14:12:13.950Z,3.20
2023-03-29T14:14:51.632Z,2.70
2023-03-29T14:17:24.511Z,4.10
2023-03-29T14:19:50.966Z,4.20
2023-03-29T14:22:17.383Z,3.40
2023-03-29T14:24:43.827Z,5.03
2023-03-29T14:27:10.239Z,3.95
2023-03-29T14:29:36.785Z,4.30
2023-03-29T14:32:03.304Z,3.45
2023-03-29T14:34:29.775Z,4.05
2023-03-29T14:36:56.318Z,3.80
2023-03-29T14:39:22.806Z,4.25
2023-03-29T14:41:49.287Z,8.45
2023-03-29T14:44:15.701Z,4.10
2023-03-29T14:46:42.108Z,3.42
2023-03-29T14:49:08.654Z,4.70
2023-03-29T14:51:35.126Z,3.42
2023-03-29T14:54:01.624Z,3.85
2023-03-29T14:56:28.116Z,3.95
2023-03-29T14:58:54.638Z,3.83
2023-03-29T15:01:21.085Z,3.03
2023-03-29T15:03:47.583Z,3.83
2023-03-29T15:06:13.990Z,5.82
2023-03-29T15:08:42.676Z,4.95
2023-03-29T15:11:14.587Z,4.88
2023-03-29T15:13:40.992Z,3.95
2023-03-29T15:16:08.364Z,4.00
2023-03-29T15:18:35.160Z,4.50
2023-03-29T15:21:01.637Z,5.72
2023-03-29T15:23:28.078Z,6.70
2023-03-29T15:25:54.665Z,3.92
2023-03-29T15:28:21.122Z,4.38
2023-03-29T15:30:57.259Z,3.83
2023-03-29T15:33:31.488Z,3.40
2023-03-29T15:35:58.057Z,3.95
2023-03-29T15:38:33.131Z,5.15
2023-03-29T15:41:07.261Z,4.20
2023-03-29T15:43:33.690Z,4.18
2023-03-29T15:46:00.157Z,3.55
2023-03-29T15:48:26.569Z,3.95
2023-03-29T15:50:53.014Z,3.72
2023-03-29T15:53:19.623Z,4.03
2023-03-29T15:55:46.059Z,3.38
2023-03-29T15:58:12.730Z,3.67
2023-03-29T16:00:39.351Z,3.65
2023-03-29T16:03:05.890Z,4.00
2023-03-29T16:05:32.489Z,4.20
2023-03-29T16:07:58.940Z,4.10
2023-03-29T16:10:25.362Z,3.95
2023-03-29T16:12:51.874Z,4.25
2023-03-29T16:15:18.251Z,3.25
2023-03-29T16:17:44.732Z,4.90
2023-03-29T16:20:11.222Z,3.65
2023-03-29T16:22:37.609Z,3.80
2023-03-29T16:25:03.995Z,4.40
2023-03-29T16:27:30.423Z,4.60
2023-03-29T16:29:56.934Z,6.03
2023-03-29T16:32:23.576Z,3.30
2023-03-29T16:34:50.025Z,4.97
2023-03-29T16:37:16.418Z,3.80
2023-03-29T16:39:42.867Z,3.80
2023-03-29T16:42:09.285Z,3.55
2023-03-29T16:44:35.713Z,4.47
2023-03-29T16:47:02.088Z,4.32
2023-03-29T16:49:28.790Z,4.15
2023-03-29T16:51:55.373Z,3.88
2023-03-29T16:54:21.768Z,3.35
2023-03-29T16:56:48.223Z,3.97
2023-03-29T16:59:14.689Z,3.67
2023-03-29T17:01:41.259Z,6.07
2023-03-29T17:04:07.882Z,4.78
2023-03-29T17:06:34.297Z,4.13
2023-03-29T17:09:00.810Z,5.03
2023-03-29T17:11:27.270Z,3.60
2023-03-29T17:13:53.971Z,3.78
2023-03-29T17:16:20.448Z,4.22
2023-03-29T17:18:46.972Z,5.63
2023-03-29T17:21:13.402Z,3.30
2023-03-29T17:23:39.815Z,3.45
2023-03-29T17:26:06.202Z,4.45
2023-03-29T17:28:32.650Z,3.60
2023-03-29T17:30:59.205Z,3.83
2023-03-29T17:33:25.679Z,4.47
2023-03-29T17:35:52.162Z,4.90
2023-03-29T17:38:18.614Z,3.75
2023-03-29T17:40:45.046Z,4.55
2023-03-29T17:43:11.520Z,4.85
2023-03-29T17:45:37.988Z,4.55
2023-03-29T17:48:06.373Z,4.63
2023-03-29T17:50:33.157Z,4.10
2023-03-29T17:52:59.577Z,4.68
2023-03-29T17:55:26.065Z,4.93
2023-03-29T17:57:52.540Z,4.55
2023-03-29T18:00:18.923Z,5.18
2023-03-29T18:02:45.502Z,4.45
2023-03-29T18:05:11.933Z,4.88
2023-03-29T18:07:38.395Z,4.63
2023-03-29T18:10:04.867Z,5.13
2023-03-29T18:12:31.340Z,5.75
2023-03-29T18:14:57.968Z,4.50
2023-03-29T18:17:24.553Z,4.10
2023-03-29T18:19:50.968Z,5.63
2023-03-29T18:22:17.544Z,3.40
2023-03-29T18:24:44.005Z,3.80
2023-03-29T18:27:10.394Z,3.90
2023-03-29T18:29:36.841Z,6.57
2023-03-29T18:32:03.258Z,5.57
2023-03-29T18:34:29.842Z,4.35
2023-03-29T18:36:56.227Z,4.90
2023-03-29T18:39:22.672Z,4.60
2023-03-29T18:41:49.144Z,4.10
2023-03-29T18:44:15.601Z,4.85
2023-03-29T18:46:42.194Z,5.38
2023-03-29T18:49:08.749Z,4.88
2023-03-29T18:51:35.118Z,4.32
2023-03-29T18:54:01.576Z,3.75
2023-03-29T18:56:27.972Z,4.25
2023-03-29T18:58:54.527Z,4.13
2023-03-29T19:01:20.949Z,3.50
2023-03-29T19:03:47.574Z,3.05
2023-03-29T19:06:14.062Z,3.85
2023-03-29T19:08:40.547Z,4.20
2023-03-29T19:11:06.969Z,4.03
2023-03-29T19:13:33.452Z,3.53
2023-03-29T19:15:59.866Z,3.95
2023-03-29T19:18:26.317Z,2.88
2023-03-29T19:20:52.788Z,4.78
2023-03-29T19:23:19.230Z,4.63
2023-03-29T19:25:45.608Z,4.05
2023-03-29T19:28:12.081Z,4.45
2023-03-29T19:30:38.529Z,3.95
2023-03-29T19:33:04.990Z,4.40
2023-03-29T19:35:31.452Z,5.20
2023-03-29T19:37:57.966Z,4.05
2023-03-29T19:40:24.529Z,3.45
2023-03-29T19:42:50.943Z,3.08
2023-03-29T19:45:17.329Z,4.53
2023-03-29T19:47:43.767Z,3.92
2023-03-29T19:50:10.225Z,4.10
2023-03-29T19:52:36.610Z,3.60
2023-03-29T19:55:03.094Z,4.43
2023-03-29T19:57:29.542Z,4.45
2023-03-29T19:59:56.010Z,4.63
2023-03-29T20:02:22.484Z,3.70
2023-03-29T20:04:48.891Z,4.05
2023-03-29T20:07:15.300Z,4.10
2023-03-29T20:09:43.889Z,3.38
2023-03-29T20:12:11.629Z,5.45
2023-03-29T20:14:38.121Z,4.82
2023-03-29T20:17:04.964Z,3.38
2023-03-29T20:19:31.369Z,4.13
2023-03-29T20:21:57.979Z,3.50
2023-03-29T20:24:24.660Z,4.55
2023-03-29T20:26:51.094Z,4.38
2023-03-29T20:29:17.508Z,4.30
2023-03-29T20:31:44.095Z,3.88
2023-03-29T20:34:10.586Z,4.10
2023-03-29T20:36:37.128Z,4.20
2023-03-29T20:39:03.648Z,4.15
2023-03-29T20:41:30.081Z,3.00
2023-03-29T20:43:56.573Z,3.85
2023-03-29T20:46:23.098Z,3.63
2023-03-29T20:48:49.743Z,3.47
2023-03-29T20:51:16.176Z,3.53
2023-03-29T20:53:42.641Z,2.45
2023-03-29T20:56:09.033Z,3.80
2023-03-29T20:58:35.475Z,3.70
2023-03-29T21:01:02.197Z,3.42
2023-03-29T21:03:29.091Z,3.75
2023-03-29T21:05:55.558Z,3.33
2023-03-29T21:08:21.966Z,3.58
2023-03-29T21:10:48.372Z,3.65
2023-03-29T21:13:14.764Z,2.97
2023-03-29T21:15:41.258Z,2.75
2023-03-29T21:18:07.870Z,3.05
2023-03-29T21:20:34.364Z,2.60
2023-03-29T21:23:00.805Z,2.80
2023-03-29T21:25:27.250Z,3.35
2023-03-29T21:27:53.743Z,3.08
2023-03-29T21:30:20.138Z,2.53
2023-03-29T21:32:46.576Z,3.45
2023-03-29T21:35:13.005Z,3.35
2023-03-29T21:37:39.386Z,3.20
2023-03-29T21:40:05.778Z,3.90
2023-03-29T21:42:32.389Z,3.03
2023-03-29T21:44:58.940Z,5.85
2023-03-29T21:47:25.357Z,4.28
2023-03-29T21:49:51.768Z,5.20
2023-03-29T21:52:18.155Z,3.95
2023-03-29T21:54:44.537Z,4.63
2023-03-29T21:57:10.995Z,3.35
2023-03-29T21:59:37.375Z,4.20
2023-03-29T22:02:03.886Z,3.50
2023-03-29T22:04:36.947Z,2.83
2023-03-29T22:07:04.013Z,4.97
2023-03-29T22:09:30.437Z,3.83
2023-03-29T22:11:56.882Z,3.72
2023-03-29T22:14:23.647Z,4.00
2023-03-29T22:16:50.172Z,3.17
2023-03-29T22:19:16.650Z,3.10
2023-03-29T22:21:43.070Z,3.70
2023-03-29T22:24:09.521Z,3.08
2023-03-29T22:26:35.950Z,3.72
2023-03-29T22:29:02.350Z,4.45
2023-03-29T22:31:28.992Z,4.47
2023-03-29T22:33:55.434Z,4.78
2023-03-29T22:36:21.876Z,5.15
2023-03-29T22:38:48.307Z,3.90
2023-03-29T22:41:14.699Z,5.63
2023-03-29T22:43:41.096Z,4.55
2023-03-29T22:46:07.528Z,3.50
2023-03-29T22:48:34.001Z,3.33
2023-03-29T22:51:00.526Z,2.92
2023-03-29T22:53:27.060Z,3.92
2023-03-29T22:55:53.742Z,2.67
2023-03-29T22:58:20.135Z,4.32
2023-03-29T23:00:46.581Z,3.53
2023-03-29T23:03:12.977Z,4.25
2023-03-29T23:05:39.424Z,4.32
2023-03-29T23:08:05.839Z,3.10
2023-03-29T23:10:32.509Z,4.38
2023-03-29T23:12:58.971Z,3.97
2023-03-29T23:15:26.689Z,3.15
2023-03-29T23:17:54.466Z,2.58
2023-03-29T23:20:20.950Z,3.15
2023-03-29T23:22:47.402Z,2.75
2023-03-29T23:25:13.892Z,2.72
2023-03-29T23:27:40.321Z,2.78
2023-03-29T23:30:06.770Z,4.47
2023-03-29T23:32:33.499Z,3.20
2023-03-29T23:34:59.963Z,2.92
2023-03-29T23:37:26.386Z,3.30
2023-03-29T23:39:52.791Z,3.28
2023-03-29T23:42:19.196Z,3.55
2023-03-29T23:44:45.609Z,4.10
2023-03-29T23:47:12.019Z,2.83
2023-03-29T23:49:38.440Z,5.85
2023-03-29T23:52:04.843Z,3.35
2023-03-29T23:54:31.306Z,3.22
2023-03-29T23:56:57.989Z,3.83
2023-03-29T23:59:24.588Z,3.45
